Time;durP1;ratioP1;P1;durP2;ratioP2;P2;SDS_P1;SDS_P2;PMS_P1;PMS_P2;Temp;Humidity;BMP_temperature;BMP_pressure;BME280_temperature;BME280_humidity;BME280_pressure;Samples;Min_cycle;Max_cycle;Signal;HPM_P1;HPM_P2
2021/03/23 00:02:18;;;;;;;;;;;;;;;;;;4973469;28;20349;-62
2021/03/23 00:04:44;;;;;;;;;;;;;;;;;;4972472;28;19938;-62
2021/03/23 00:07:11;;;;;;;;;;;;;;;;;;4971766;28;19933;-62
2021/03/23 00:09:37;;;;;;;;;;;;;;;;;;4971458;28;20030;-62
2021/03/23 00:12:04;;;;;;;;;;;;;;;;;;4972839;28;20309;-61
2021/03/23 00:14:31;;;;;;;;;;;;;;;;;;4964807;28;20021;-61
2021/03/23 00:16:57;;;;;;;;;;;;;;;;;;4969320;28;20334;-64
2021/03/23 00:19:24;;;;;;;;;;;;;;;;;;4972228;28;19930;-61
2021/03/23 00:21:50;;;;;;;;;;;;;;;;;;4972168;28;19959;-62
2021/03/23 00:24:17;;;;;;;;;;;;;;;;;;4973145;28;20020;-61
2021/03/23 00:26:43;;;;;;;;;;;;;;;;;;4969674;28;20436;-62
2021/03/23 00:29:11;;;;;;;;;;;;;;;;;;4973202;28;20036;-61
2021/03/23 00:31:38;;;;;;;;;;;;;;;;;;4972121;28;20359;-62
2021/03/23 00:34:04;;;;;;;;;;;;;;;;;;4972045;28;19933;-62
2021/03/23 00:36:31;;;;;;;;;;;;;;;;;;4973241;28;19977;-61
2021/03/23 00:38:57;;;;;;;;;;;;;;;;;;4972222;28;19930;-63
2021/03/23 00:41:24;;;;;;;;;;;;;;;;;;4972741;28;20025;-61
2021/03/23 00:43:50;;;;;;;;;;;;;;;;;;4971710;28;20390;-62
2021/03/23 00:46:17;;;;;;;;;;;;;;;;;;4971065;28;20471;-62
2021/03/23 00:48:43;;;;;;;;;;;;;;;;;;4971496;28;19930;-62
2021/03/23 00:51:10;;;;;;;;;;;;;;;;;;4972106;28;20057;-61
2021/03/23 00:53:36;;;;;;;;;;;;;;;;;;4971723;28;19930;-62
2021/03/23 00:56:03;;;;;;;;;;;;;;;;;;4970677;28;19941;-62
2021/03/23 00:58:29;;;;;;;;;;;;;;;;;;4971217;28;19934;-61
2021/03/23 01:00:56;;;;;;;;;;;;;;;;;;4971854;28;19933;-61
2021/03/23 01:03:22;;;;;;;;;;;;;;;;;;4969568;28;20298;-61
2021/03/23 01:05:50;;;;;;;;;;;;;;;;;;4969080;28;19980;-62
2021/03/23 01:08:16;;;;;;;;;;;;;;;;;;4971747;28;20405;-62
2021/03/23 01:10:43;;;;;;;;;;;;;;;;;;4969390;28;19926;-62
2021/03/23 01:13:09;;;;;;;;;;;;;;;;;;4970239;28;19926;-62
2021/03/23 01:15:36;;;;;;;;;;;;;;;;;;4967367;28;19981;-62
2021/03/23 01:18:02;;;;;;;;;;;;;;;;;;4971800;28;19926;-62
2021/03/23 01:20:29;;;;;;;;;;;;;;;;;;4970651;28;19972;-61
2021/03/23 01:22:55;;;;;;;;;;;;;;;;;;4972693;28;19926;-62
2021/03/23 01:25:22;;;;;;;;;;;;;;;;;;4971337;28;19926;-64
2021/03/23 01:27:49;;;;;;;;;;;;;;;;;;4972140;28;19933;-62
2021/03/23 01:30:16;;;;;;;;;;;;;;;;;;4968817;28;20073;-61
2021/03/23 01:32:42;;;;;;;;;;;;;;;;;;4969840;28;19933;-62
2021/03/23 01:35:09;;;;;;;;;;;;;;;;;;4964960;28;19926;-62
2021/03/23 01:37:35;;;;;;;;;;;;;;;;;;4971082;28;19926;-62
2021/03/23 01:40:02;;;;;;;;;;;;;;;;;;4970877;28;19930;-63
2021/03/23 01:42:28;;;;;;;;;;;;;;;;;;4963764;28;19933;-62
2021/03/23 01:44:55;;;;;;;;;;;;;;;;;;4970457;28;20384;-62
2021/03/23 01:47:21;;;;;;;;;;;;;;;;;;4970760;28;20029;-62
2021/03/23 01:49:48;;;;;;;;;;;;;;;;;;4970780;28;19961;-62
2021/03/23 01:52:14;;;;;;;;;;;;;;;;;;4976315;28;19926;-60
2021/03/23 01:54:41;;;;;;;;;;;;;;;;;;4977435;28;20005;-61
2021/03/23 01:57:07;;;;;;;;;;;;;;;;;;4976492;28;19926;-62
2021/03/23 01:59:34;;;;;;;;;;;;;;;;;;4971910;28;19985;-62
2021/03/23 02:02:00;;;;;;;;;;;;;;;;;;4969435;28;20390;-61
2021/03/23 02:04:27;;;;;;;;;;;;;;;;;;4973621;28;19931;-61
2021/03/23 02:06:53;;;;;;;;;;;;;;;;;;4972415;28;20342;-62
2021/03/23 02:09:20;;;;;;;;;;;;;;;;;;4972728;28;19980;-62
2021/03/23 02:11:46;;;;;;;;;;;;;;;;;;4968997;28;19930;-61
2021/03/23 02:14:13;;;;;;;;;;;;;;;;;;4971246;28;20025;-61
2021/03/23 02:16:39;;;;;;;;;;;;;;;;;;4975698;28;19981;-62
2021/03/23 02:19:06;;;;;;;;;;;;;;;;;;4975921;28;19976;-62
2021/03/23 02:21:32;;;;;;;;;;;;;;;;;;4974618;28;19969;-61
2021/03/23 02:23:59;;;;;;;;;;;;;;;;;;4975194;28;20017;-62
2021/03/23 02:26:25;;;;;;;;;;;;;;;;;;4975400;28;19926;-62
2021/03/23 02:28:55;;;;;;;;;;;;;;;;;;4970960;28;19930;-61
2021/03/23 02:31:21;;;;;;;;;;;;;;;;;;4974545;28;20036;-62
2021/03/23 02:33:48;;;;;;;;;;;;;;;;;;4975507;28;20397;-61
2021/03/23 02:36:14;;;;;;;;;;;;;;;;;;4974643;28;19933;-61
2021/03/23 02:38:41;;;;;;;;;;;;;;;;;;4976446;28;20421;-62
2021/03/23 02:41:07;;;;;;;;;;;;;;;;;;4970897;28;19941;-62
2021/03/23 02:43:34;;;;;;;;;;;;;;;;;;4975103;28;20310;-61
2021/03/23 02:46:00;;;;;;;;;;;;;;;;;;4974249;28;19926;-62
2021/03/23 02:48:27;;;;;;;;;;;;;;;;;;4968478;28;19934;-62
2021/03/23 02:50:53;;;;;;;;;;;;;;;;;;4973998;28;19930;-61
2021/03/23 02:53:20;;;;;;;;;;;;;;;;;;4973259;28;20016;-61
2021/03/23 02:55:46;;;;;;;;;;;;;;;;;;4973810;28;19930;-61
2021/03/23 02:58:12;;;;;;;;;;;;;;;;;;4973471;28;19934;-62
2021/03/23 03:00:39;;;;;;;;;;;;;;;;;;4973442;28;20021;-62
2021/03/23 03:03:06;;;;;;;;;;;;;;;;;;4974002;28;20219;-62
2021/03/23 03:05:32;;;;;;;;;;;;;;;;;;4973897;28;19926;-62
2021/03/23 03:07:59;;;;;;;;;;;;;;;;;;4973760;28;19930;-61
2021/03/23 03:10:25;;;;;;;;;;;;;;;;;;4973216;28;20441;-61
2021/03/23 03:12:52;;;;;;;;;;;;;;;;;;4972679;28;19933;-62
2021/03/23 03:15:18;;;;;;;;;;;;;;;;;;4969552;28;20330;-62
2021/03/23 03:17:45;;;;;;;;;;;;;;;;;;4973806;28;19926;-61
2021/03/23 03:20:11;;;;;;;;;;;;;;;;;;4973741;28;19925;-62
2021/03/23 03:22:37;;;;;;;;;;;;;;;;;;4974190;28;20024;-62
2021/03/23 03:25:04;;;;;;;;;;;;;;;;;;4968340;28;19934;-62
2021/03/23 03:27:30;;;;;;;;;;;;;;;;;;4973092;28;19930;-62
2021/03/23 03:29:57;;;;;;;;;;;;;;;;;;4966512;28;19934;-62
2021/03/23 03:32:23;;;;;;;;;;;;;;;;;;4972417;28;20432;-62
2021/03/23 03:34:50;;;;;;;;;;;;;;;;;;4973289;28;19926;-62
2021/03/23 03:37:16;;;;;;;;;;;;;;;;;;4972914;28;20271;-64
2021/03/23 03:39:43;;;;;;;;;;;;;;;;;;4971812;28;20176;-61
2021/03/23 03:42:09;;;;;;;;;;;;;;;;;;4970436;28;20355;-61
2021/03/23 03:44:36;;;;;;;;;;;;;;;;;;4970688;28;20002;-62
2021/03/23 03:47:02;;;;;;;;;;;;;;;;;;4973367;28;20305;-62
2021/03/23 03:49:29;;;;;;;;;;;;;;;;;;4974122;28;19933;-62
2021/03/23 03:51:55;;;;;;;;;;;;;;;;;;4969241;28;20317;-62
2021/03/23 03:54:22;;;;;;;;;;;;;;;;;;4971870;28;19932;-62
2021/03/23 03:56:48;;;;;;;;;;;;;;;;;;4973459;28;20425;-61
2021/03/23 03:59:15;;;;;;;;;;;;;;;;;;4969624;28;19927;-64
2021/03/23 04:01:41;;;;;;;;;;;;;;;;;;4969700;28;19950;-61
2021/03/23 04:04:08;;;;;;;;;;;;;;;;;;4972637;28;19926;-59
2021/03/23 04:06:34;;;;;;;;;;;;;;;;;;4973094;28;20053;-61
2021/03/23 04:09:01;;;;;;;;;;;;;;;;;;4973273;28;19933;-60
2021/03/23 04:11:27;;;;;;;;;;;;;;;;;;4973102;28;19926;-61
2021/03/23 04:13:54;;;;;;;;;;;;;;;;;;4972928;28;19926;-62
2021/03/23 04:16:20;;;;;;;;;;;;;;;;;;4973793;28;20305;-60
2021/03/23 04:18:47;;;;;;;;;;;;;;;;;;4966782;28;19926;-61
2021/03/23 04:21:13;;;;;;;;;;;;;;;;;;4972614;28;20306;-65
2021/03/23 04:23:40;;;;;;;;;;;;;;;;;;4971397;28;19973;-58
2021/03/23 04:26:06;;;;;;;;;;;;;;;;;;4972557;28;20049;-60
2021/03/23 04:28:33;;;;;;;;;;;;;;;;;;4965973;28;19973;-61
2021/03/23 04:30:59;;;;;;;;;;;;;;;;;;4972206;28;20386;-61
2021/03/23 04:33:26;;;;;;;;;;;;;;;;;;4972330;28;19936;-60
2021/03/23 04:35:52;;;;;;;;;;;;;;;;;;4973745;28;19926;-59
2021/03/23 04:38:19;;;;;;;;;;;;;;;;;;4972564;28;19933;-60
2021/03/23 04:40:45;;;;;;;;;;;;;;;;;;4971986;28;20413;-60
2021/03/23 04:43:12;;;;;;;;;;;;;;;;;;4972449;28;19933;-61
2021/03/23 04:45:38;;;;;;;;;;;;;;;;;;4973006;28;19948;-58
2021/03/23 04:48:05;;;;;;;;;;;;;;;;;;4972174;28;19930;-60
2021/03/23 04:50:31;;;;;;;;;;;;;;;;;;4966442;28;20335;-60
2021/03/23 04:52:58;;;;;;;;;;;;;;;;;;4973346;28;19930;-61
2021/03/23 04:55:24;;;;;;;;;;;;;;;;;;4967321;28;20339;-61
2021/03/23 04:57:51;;;;;;;;;;;;;;;;;;4969096;28;19930;-60
2021/03/23 05:00:17;;;;;;;;;;;;;;;;;;4972561;28;20382;-61
2021/03/23 05:02:44;;;;;;;;;;;;;;;;;;4968343;28;19952;-59
2021/03/23 05:05:10;;;;;;;;;;;;;;;;;;4971484;28;20412;-61
2021/03/23 05:07:37;;;;;;;;;;;;;;;;;;4972725;28;20469;-60
2021/03/23 05:10:03;;;;;;;;;;;;;;;;;;4968961;28;19973;-59
2021/03/23 05:12:30;;;;;;;;;;;;;;;;;;4972400;28;20341;-61
2021/03/23 05:14:56;;;;;;;;;;;;;;;;;;4972915;28;20085;-60
2021/03/23 05:17:23;;;;;;;;;;;;;;;;;;4970299;28;20276;-61
2021/03/23 05:19:49;;;;;;;;;;;;;;;;;;4970844;28;19926;-62
2021/03/23 05:22:16;;;;;;;;;;;;;;;;;;4968406;28;19957;-61
2021/03/23 05:24:42;;;;;;;;;;;;;;;;;;4972427;28;19930;-60
2021/03/23 05:27:09;;;;;;;;;;;;;;;;;;4972019;28;20323;-62
2021/03/23 05:29:35;;;;;;;;;;;;;;;;;;4965040;28;20394;-59
2021/03/23 05:32:02;;;;;;;;;;;;;;;;;;4970521;28;19926;-59
2021/03/23 05:34:28;;;;;;;;;;;;;;;;;;4967530;28;20409;-60
2021/03/23 05:36:55;;;;;;;;;;;;;;;;;;4970814;28;19926;-60
2021/03/23 05:39:21;;;;;;;;;;;;;;;;;;4971611;28;19949;-60
2021/03/23 05:41:48;;;;;;;;;;;;;;;;;;4971759;28;19926;-61
2021/03/23 05:44:14;;;;;;;;;;;;;;;;;;4971354;28;19926;-60
2021/03/23 05:46:41;;;;;;;;;;;;;;;;;;4969895;28;20284;-58
2021/03/23 05:49:07;;;;;;;;;;;;;;;;;;4971918;28;19927;-61
2021/03/23 05:51:34;;;;;;;;;;;;;;;;;;4969585;28;20409;-61
2021/03/23 05:54:00;;;;;;;;;;;;;;;;;;4970975;28;20012;-61
2021/03/23 05:56:27;;;;;;;;;;;;;;;;;;4971432;28;20289;-59
2021/03/23 05:58:53;;;;;;;;;;;;;;;;;;4971368;28;19926;-59
2021/03/23 06:01:20;;;;;;;;;;;;;;;;;;4971520;28;19926;-61
2021/03/23 06:03:46;;;;;;;;;;;;;;;;;;4971332;28;19937;-60
2021/03/23 06:06:13;;;;;;;;;;;;;;;;;;4965847;28;19930;-62
2021/03/23 06:08:39;;;;;;;;;;;;;;;;;;4971633;28;19926;-61
2021/03/23 06:11:06;;;;;;;;;;;;;;;;;;4968826;28;20021;-60
2021/03/23 06:13:32;;;;;;;;;;;;;;;;;;4968667;28;19926;-60
2021/03/23 06:15:59;;;;;;;;;;;;;;;;;;4970566;28;19980;-61
2021/03/23 06:18:25;;;;;;;;;;;;;;;;;;4971995;28;19926;-60
2021/03/23 06:20:52;;;;;;;;;;;;;;;;;;4971752;28;19926;-60
2021/03/23 06:23:18;;;;;;;;;;;;;;;;;;4971186;28;19926;-60
2021/03/23 06:25:45;;;;;;;;;;;;;;;;;;4970777;28;19926;-61
2021/03/23 06:28:11;;;;;;;;;;;;;;;;;;4970667;28;19926;-61
2021/03/23 06:30:38;;;;;;;;;;;;;;;;;;4967453;28;19949;-60
2021/03/23 06:33:04;;;;;;;;;;;;;;;;;;4971570;28;19968;-59
2021/03/23 06:35:31;;;;;;;;;;;;;;;;;;4974062;28;20001;-60
2021/03/23 06:37:57;;;;;;;;;;;;;;;;;;4976457;28;19926;-61
2021/03/23 06:40:24;;;;;;;;;;;;;;;;;;4974592;28;19972;-60
2021/03/23 06:42:51;;;;;;;;;;;;;;;;;;4970701;28;20328;-59
2021/03/23 06:45:17;;;;;;;;;;;;;;;;;;4966582;28;20510;-62
2021/03/23 06:47:44;;;;;;;;;;;;;;;;;;4972527;28;19953;-58
2021/03/23 06:50:10;;;;;;;;;;;;;;;;;;4972620;28;19992;-55
2021/03/23 06:52:37;;;;;;;;;;;;;;;;;;4971884;28;19973;-55
2021/03/23 06:55:06;;;;;;;;;;;;;;;;;;4970041;28;19930;-56
2021/03/23 06:57:33;;;;;;;;;;;;;;;;;;4965407;28;20426;-58
2021/03/23 06:59:59;;;;;;;;;;;;;;;;;;4969655;28;19933;-60
2021/03/23 07:02:26;;;;;;;;;;;;;;;;;;4973219;28;20032;-58
2021/03/23 07:04:52;;;;;;;;;;;;;;;;;;4973657;28;19933;-60
2021/03/23 07:07:19;;;;;;;;;;;;;;;;;;4974047;28;19937;-59
2021/03/23 07:09:45;;;;;;;;;;;;;;;;;;4973761;28;20383;-58
2021/03/23 07:12:12;;;;;;;;;;;;;;;;;;4973425;28;19926;-61
2021/03/23 07:14:39;;;;;;;;;;;;;;;;;;4973772;28;19934;-60
2021/03/23 07:17:05;;;;;;;;;;;;;;;;;;4974474;28;19964;-61
2021/03/23 07:19:32;;;;;;;;;;;;;;;;;;4972832;28;19926;-61
2021/03/23 07:21:58;;;;;;;;;;;;;;;;;;4973711;28;19932;-61
2021/03/23 07:24:30;;;;;;;;;;;;;;;;;;4971955;28;20384;-62
2021/03/23 07:26:57;;;;;;;;;;;;;;;;;;4971226;28;20341;-63
2021/03/23 07:29:23;;;;;;;;;;;;;;;;;;4970523;28;20029;-63
2021/03/23 07:31:50;;;;;;;;;;;;;;;;;;4961689;28;19933;-61
2021/03/23 07:34:16;;;;;;;;;;;;;;;;;;4970934;28;19956;-63
2021/03/23 07:36:43;;;;;;;;;;;;;;;;;;4972256;28;19933;-62
2021/03/23 07:39:09;;;;;;;;;;;;;;;;;;4972218;28;20383;-62
2021/03/23 07:41:36;;;;;;;;;;;;;;;;;;4973033;28;20021;-60
2021/03/23 07:44:03;;;;;;;;;;;;;;;;;;4970180;28;19934;-63
2021/03/23 07:46:29;;;;;;;;;;;;;;;;;;4959323;28;19926;-62
2021/03/23 07:48:56;;;;;;;;;;;;;;;;;;4961578;28;19981;-62
2021/03/23 07:51:22;;;;;;;;;;;;;;;;;;4963815;28;20394;-62
2021/03/23 07:53:49;;;;;;;;;;;;;;;;;;4967934;28;19934;-62
2021/03/23 07:56:15;;;;;;;;;;;;;;;;;;4960550;28;19926;-61
2021/03/23 07:58:42;;;;;;;;;;;;;;;;;;4966223;28;20446;-61
2021/03/23 08:01:08;;;;;;;;;;;;;;;;;;4969368;28;19926;-63
2021/03/23 08:03:35;;;;;;;;;;;;;;;;;;4966069;28;19926;-62
2021/03/23 08:06:01;;;;;;;;;;;;;;;;;;4970213;28;19961;-61
2021/03/23 08:08:28;;;;;;;;;;;;;;;;;;4968612;28;19926;-63
2021/03/23 08:10:57;;;;;;;;;;;;;;;;;;4966651;28;19934;-62
2021/03/23 08:13:24;;;;;;;;;;;;;;;;;;4960936;28;19926;-62
2021/03/23 08:15:50;;;;;;;;;;;;;;;;;;4965942;28;19926;-62
2021/03/23 08:18:17;;;;;;;;;;;;;;;;;;4965407;28;20034;-63
2021/03/23 08:20:43;;;;;;;;;;;;;;;;;;4961437;28;20013;-61
2021/03/23 08:23:10;;;;;;;;;;;;;;;;;;4971143;28;20491;-63
2021/03/23 08:25:38;;;;;;;;;;;;;;;;;;4965865;28;19933;-63
2021/03/23 08:28:04;;;;;;;;;;;;;;;;;;4962331;28;19934;-62
2021/03/23 08:30:33;;;;;;;;;;;;;;;;;;4967840;28;20268;-63
2021/03/23 08:32:59;;;;;;;;;;;;;;;;;;4969736;28;20284;-63
2021/03/23 08:35:28;;;;;;;;;;;;;;;;;;4965352;28;20029;-63
2021/03/23 08:37:57;;;;;;;;;;;;;;;;;;4968316;28;20037;-63
2021/03/23 08:40:23;;;;;;;;;;;;;;;;;;4965868;28;19930;-62
2021/03/23 08:42:50;;;;;;;;;;;;;;;;;;4970191;28;20063;-63
2021/03/23 08:45:16;;;;;;;;;;;;;;;;;;4969886;28;19930;-62
2021/03/23 08:47:43;;;;;;;;;;;;;;;;;;4970411;28;19926;-63
2021/03/23 08:50:09;;;;;;;;;;;;;;;;;;4961361;28;20339;-63
2021/03/23 08:52:36;;;;;;;;;;;;;;;;;;4971064;28;19930;-63
2021/03/23 08:55:02;;;;;;;;;;;;;;;;;;4968539;28;19988;-63
2021/03/23 08:57:29;;;;;;;;;;;;;;;;;;4964098;28;19933;-63
2021/03/23 08:59:56;;;;;;;;;;;;;;;;;;4961862;28;19934;-63
2021/03/23 09:02:23;;;;;;;;;;;;;;;;;;4965876;28;20324;-62
2021/03/23 09:04:50;;;;;;;;;;;;;;;;;;4969048;28;19930;-61
2021/03/23 09:07:16;;;;;;;;;;;;;;;;;;4968803;28;19926;-61
2021/03/23 09:09:43;;;;;;;;;;;;;;;;;;4962818;28;19933;-62
2021/03/23 09:12:09;;;;;;;;;;;;;;;;;;4966125;28;19926;-60
2021/03/23 09:14:36;;;;;;;;;;;;;;;;;;4970059;28;19929;-62
2021/03/23 09:17:02;;;;;;;;;;;;;;;;;;4970273;28;19930;-64
2021/03/23 09:19:28;;;;;;;;;;;;;;;;;;4965810;28;19949;-61
2021/03/23 09:21:58;;;;;;;;;;;;;;;;;;4967812;28;19930;-62
2021/03/23 09:24:24;;;;;;;;;;;;;;;;;;4965996;28;19930;-62
2021/03/23 09:26:52;;;;;;;;;;;;;;;;;;4969481;28;20306;-62
2021/03/23 09:29:18;;;;;;;;;;;;;;;;;;4966373;28;20314;-62
2021/03/23 09:31:45;;;;;;;;;;;;;;;;;;4965986;28;19930;-62
2021/03/23 09:34:11;;;;;;;;;;;;;;;;;;4965213;28;19926;-63
2021/03/23 09:36:38;;;;;;;;;;;;;;;;;;4957696;28;20367;-63
2021/03/23 09:39:04;;;;;;;;;;;;;;;;;;4962814;28;20294;-61
2021/03/23 09:41:35;;;;;;;;;;;;;;;;;;4965047;28;19965;-63
2021/03/23 09:44:02;;;;;;;;;;;;;;;;;;4962864;28;19948;-64
2021/03/23 09:46:28;;;;;;;;;;;;;;;;;;4966416;28;20021;-66
2021/03/23 09:48:55;;;;;;;;;;;;;;;;;;4967556;28;19934;-67
2021/03/23 09:51:22;;;;;;;;;;;;;;;;;;4964391;28;20451;-69
2021/03/23 09:53:51;;;;;;;;;;;;;;;;;;4970102;28;20418;-66
2021/03/23 09:56:19;;;;;;;;;;;;;;;;;;4990048;23;20451;-67
2021/03/23 09:58:45;;;;;;;;;;;;;;;;;;4963656;28;20401;-66
2021/03/23 10:01:12;;;;;;;;;;;;;;;;;;4964208;28;19980;-67
2021/03/23 10:03:38;;;;;;;;;;;;;;;;;;4968154;28;19926;-66
2021/03/23 10:06:05;;;;;;;;;;;;;;;;;;4965296;28;19947;-67
2021/03/23 10:08:34;;;;;;;;;;;;;;;;;;4946120;28;19927;-66
2021/03/23 10:11:01;;;;;;;;;;;;;;;;;;4949637;28;20035;-66
2021/03/23 10:13:27;;;;;;;;;;;;;;;;;;4952474;28;19927;-65
2021/03/23 10:15:54;;;;;;;;;;;;;;;;;;4951524;28;20450;-65
2021/03/23 10:18:21;;;;;;;;;;;;;;;;;;4949116;28;19935;-66
2021/03/23 10:20:47;;;;;;;;;;;;;;;;;;4949760;28;20314;-66
2021/03/23 10:23:14;;;;;;;;;;;;;;;;;;4957209;28;20020;-67
2021/03/23 10:25:45;;;;;;;;;;;;;;;;;;4959810;28;19934;-65
2021/03/23 10:28:12;;;;;;;;;;;;;;;;;;4948769;28;19958;-65
2021/03/23 10:30:38;;;;;;;;;;;;;;;;;;4955649;28;20009;-65
2021/03/23 10:33:05;;;;;;;;;;;;;;;;;;4957660;28;19926;-65
2021/03/23 10:35:31;;;;;;;;;;;;;;;;;;4944501;28;19986;-64
2021/03/23 10:37:58;;;;;;;;;;;;;;;;;;4949671;28;19933;-64
2021/03/23 10:40:24;;;;;;;;;;;;;;;;;;4953679;28;19933;-66
2021/03/23 10:42:51;;;;;;;;;;;;;;;;;;4952901;28;20021;-66
2021/03/23 10:45:17;;;;;;;;;;;;;;;;;;4947186;28;19930;-67
2021/03/23 10:47:45;;;;;;;;;;;;;;;;;;4950209;28;19935;-66
2021/03/23 10:50:12;;;;;;;;;;;;;;;;;;4954330;28;19926;-66
2021/03/23 10:52:41;;;;;;;;;;;;;;;;;;4950332;28;19997;-66
2021/03/23 10:55:07;;;;;;;;;;;;;;;;;;4948993;28;20305;-66
2021/03/23 10:57:38;;;;;;;;;;;;;;;;;;4945783;28;19930;-66
2021/03/23 11:00:04;;;;;;;;;;;;;;;;;;4948453;28;19933;-67
2021/03/23 11:02:31;;;;;;;;;;;;;;;;;;4949216;28;19978;-66
2021/03/23 11:04:57;;;;;;;;;;;;;;;;;;4948253;28;19926;-66
2021/03/23 11:07:24;;;;;;;;;;;;;;;;;;4949148;28;19976;-66
2021/03/23 11:09:50;;;;;;;;;;;;;;;;;;4946688;28;19970;-67
2021/03/23 11:12:17;;;;;;;;;;;;;;;;;;4950836;28;19934;-67
2021/03/23 11:14:53;;;;;;;;;;;;;;;;;;4946094;28;21601;-68
2021/03/23 11:17:20;;;;;;;;;;;;;;;;;;4948487;28;19927;-68
2021/03/23 11:19:50;;;;;;;;;;;;;;;;;;4945363;28;20462;-68
2021/03/23 11:22:16;;;;;;;;;;;;;;;;;;4949942;28;19930;-67
2021/03/23 11:24:43;;;;;;;;;;;;;;;;;;4942673;29;20013;-67
2021/03/23 11:27:09;;;;;;;;;;;;;;;;;;4950847;28;19926;-67
2021/03/23 11:29:36;;;;;;;;;;;;;;;;;;4941838;28;19934;-66
2021/03/23 11:32:03;;;;;;;;;;;;;;;;;;4948741;28;19926;-67
2021/03/23 11:34:29;;;;;;;;;;;;;;;;;;4947131;28;20017;-68
2021/03/23 11:36:56;;;;;;;;;;;;;;;;;;4946711;28;19942;-66
2021/03/23 11:39:22;;;;;;;;;;;;;;;;;;4947981;28;19966;-65
2021/03/23 11:41:49;;;;;;;;;;;;;;;;;;4949845;28;20318;-63
2021/03/23 11:44:15;;;;;;;;;;;;;;;;;;4949449;28;20021;-65
2021/03/23 11:46:42;;;;;;;;;;;;;;;;;;4948700;28;19926;-65
2021/03/23 11:49:12;;;;;;;;;;;;;;;;;;4946721;28;20587;-65
2021/03/23 11:51:39;;;;;;;;;;;;;;;;;;4944020;28;19931;-65
2021/03/23 11:54:05;;;;;;;;;;;;;;;;;;4946949;28;20017;-65
2021/03/23 11:56:32;;;;;;;;;;;;;;;;;;4946647;28;19966;-65
2021/03/23 11:58:58;;;;;;;;;;;;;;;;;;4944261;28;19927;-65
2021/03/23 12:01:25;;;;;;;;;;;;;;;;;;4947567;28;19940;-65
2021/03/23 12:03:51;;;;;;;;;;;;;;;;;;4950537;28;19953;-65
2021/03/23 12:06:18;;;;;;;;;;;;;;;;;;4949588;28;19974;-65
2021/03/23 12:08:45;;;;;;;;;;;;;;;;;;4940728;28;19938;-65
2021/03/23 12:11:11;;;;;;;;;;;;;;;;;;4940146;28;19993;-65
2021/03/23 12:13:38;;;;;;;;;;;;;;;;;;4950060;29;20013;-65
2021/03/23 12:16:04;;;;;;;;;;;;;;;;;;4944269;28;19931;-64
2021/03/23 12:18:31;;;;;;;;;;;;;;;;;;4948719;28;19926;-65
2021/03/23 12:20:58;;;;;;;;;;;;;;;;;;4943422;28;19962;-65
2021/03/23 12:23:25;;;;;;;;;;;;;;;;;;4945304;28;20339;-65
2021/03/23 12:25:51;;;;;;;;;;;;;;;;;;4947810;28;19927;-65
2021/03/23 12:28:18;;;;;;;;;;;;;;;;;;4942475;28;19977;-66
2021/03/23 12:30:44;;;;;;;;;;;;;;;;;;4945701;28;19973;-65
2021/03/23 12:33:11;;;;;;;;;;;;;;;;;;4944168;28;19926;-66
2021/03/23 12:35:37;;;;;;;;;;;;;;;;;;4943915;29;19926;-66
2021/03/23 12:38:04;;;;;;;;;;;;;;;;;;4941334;28;19930;-64
2021/03/23 12:40:30;;;;;;;;;;;;;;;;;;4950356;28;20445;-65
2021/03/23 12:42:57;;;;;;;;;;;;;;;;;;4945459;28;20017;-65
2021/03/23 12:45:23;;;;;;;;;;;;;;;;;;4946229;28;20033;-65
2021/03/23 12:47:50;;;;;;;;;;;;;;;;;;4950572;28;19927;-64
2021/03/23 12:50:16;;;;;;;;;;;;;;;;;;4942025;28;20357;-64
2021/03/23 12:52:43;;;;;;;;;;;;;;;;;;4947162;28;19933;-64
2021/03/23 12:55:09;;;;;;;;;;;;;;;;;;4946316;28;19926;-66
2021/03/23 12:57:39;;;;;;;;;;;;;;;;;;4940987;28;20021;-65
2021/03/23 13:00:06;;;;;;;;;;;;;;;;;;4943240;28;20342;-65
2021/03/23 13:02:32;;;;;;;;;;;;;;;;;;4948000;28;19933;-64
2021/03/23 13:05:00;;;;;;;;;;;;;;;;;;4942870;28;20029;-65
2021/03/23 13:07:26;;;;;;;;;;;;;;;;;;4941987;28;19934;-65
2021/03/23 13:09:53;;;;;;;;;;;;;;;;;;4937800;28;20348;-64
2021/03/23 13:12:19;;;;;;;;;;;;;;;;;;4948818;28;20328;-64
2021/03/23 13:14:46;;;;;;;;;;;;;;;;;;4942713;28;19927;-66
2021/03/23 13:17:13;;;;;;;;;;;;;;;;;;4944961;28;19927;-66
2021/03/23 13:19:39;;;;;;;;;;;;;;;;;;4943926;28;20024;-66
2021/03/23 13:22:06;;;;;;;;;;;;;;;;;;4944774;28;19934;-66
2021/03/23 13:24:33;;;;;;;;;;;;;;;;;;4943058;28;19934;-66
2021/03/23 13:26:59;;;;;;;;;;;;;;;;;;4944791;29;19926;-65
2021/03/23 13:29:26;;;;;;;;;;;;;;;;;;4946149;28;20027;-65
2021/03/23 13:31:52;;;;;;;;;;;;;;;;;;4944076;28;19926;-67
2021/03/23 13:34:19;;;;;;;;;;;;;;;;;;4944206;28;19978;-66
2021/03/23 13:36:45;;;;;;;;;;;;;;;;;;4948373;28;20679;-66
2021/03/23 13:39:12;;;;;;;;;;;;;;;;;;4945252;28;19934;-65
2021/03/23 13:41:38;;;;;;;;;;;;;;;;;;4944348;28;19953;-66
2021/03/23 13:44:05;;;;;;;;;;;;;;;;;;4950095;28;19934;-65
2021/03/23 13:46:32;;;;;;;;;;;;;;;;;;4945189;28;19957;-65
2021/03/23 13:48:58;;;;;;;;;;;;;;;;;;4946191;28;19926;-65
2021/03/23 13:51:26;;;;;;;;;;;;;;;;;;4950465;28;19966;-65
2021/03/23 13:53:52;;;;;;;;;;;;;;;;;;4945599;28;19974;-66
2021/03/23 13:56:19;;;;;;;;;;;;;;;;;;4941360;28;19931;-66
2021/03/23 13:58:45;;;;;;;;;;;;;;;;;;4942750;28;19927;-64
2021/03/23 14:01:12;;;;;;;;;;;;;;;;;;4943813;28;20034;-63
2021/03/23 14:03:38;;;;;;;;;;;;;;;;;;4947069;28;19931;-64
2021/03/23 14:06:05;;;;;;;;;;;;;;;;;;4948440;28;19931;-64
2021/03/23 14:08:31;;;;;;;;;;;;;;;;;;4945737;28;20276;-64
2021/03/23 14:10:58;;;;;;;;;;;;;;;;;;4944551;28;20364;-64
2021/03/23 14:13:24;;;;;;;;;;;;;;;;;;4955333;28;20021;-64
2021/03/23 14:15:51;;;;;;;;;;;;;;;;;;4949095;28;19931;-63
2021/03/23 14:18:20;;;;;;;;;;;;;;;;;;4947547;28;19938;-66
2021/03/23 14:20:47;;;;;;;;;;;;;;;;;;4950245;28;19945;-64
2021/03/23 14:23:13;;;;;;;;;;;;;;;;;;4952900;28;20009;-67
2021/03/23 14:25:40;;;;;;;;;;;;;;;;;;4951846;28;19934;-66
2021/03/23 14:28:07;;;;;;;;;;;;;;;;;;4948744;28;19962;-66
2021/03/23 14:30:34;;;;;;;;;;;;;;;;;;4949510;28;20410;-67
2021/03/23 14:33:00;;;;;;;;;;;;;;;;;;4948691;28;20073;-66
2021/03/23 14:35:27;;;;;;;;;;;;;;;;;;4955031;28;19965;-64
2021/03/23 14:37:53;;;;;;;;;;;;;;;;;;4947867;28;20326;-66
2021/03/23 14:40:20;;;;;;;;;;;;;;;;;;4945985;28;20279;-67
2021/03/23 14:42:46;;;;;;;;;;;;;;;;;;4948776;28;20025;-66
2021/03/23 14:45:13;;;;;;;;;;;;;;;;;;4948390;28;20020;-66
2021/03/23 14:47:39;;;;;;;;;;;;;;;;;;4948728;28;19926;-66
2021/03/23 14:50:06;;;;;;;;;;;;;;;;;;4952711;28;19927;-67
2021/03/23 14:52:32;;;;;;;;;;;;;;;;;;4954445;28;20048;-66
2021/03/23 14:54:59;;;;;;;;;;;;;;;;;;4950897;28;20021;-68
2021/03/23 14:57:26;;;;;;;;;;;;;;;;;;4943750;28;19970;-65
2021/03/23 14:59:52;;;;;;;;;;;;;;;;;;4942312;28;20295;-65
2021/03/23 15:02:19;;;;;;;;;;;;;;;;;;4951661;28;19973;-64
2021/03/23 15:04:45;;;;;;;;;;;;;;;;;;4950988;28;19926;-65
2021/03/23 15:07:12;;;;;;;;;;;;;;;;;;4948435;28;19927;-68
2021/03/23 15:09:38;;;;;;;;;;;;;;;;;;4947720;28;19977;-67
2021/03/23 15:12:05;;;;;;;;;;;;;;;;;;4950639;28;19930;-65
2021/03/23 15:14:31;;;;;;;;;;;;;;;;;;4948502;28;20357;-65
2021/03/23 15:16:58;;;;;;;;;;;;;;;;;;4952592;28;20398;-67
2021/03/23 15:19:24;;;;;;;;;;;;;;;;;;4942683;28;19927;-66
2021/03/23 15:21:51;;;;;;;;;;;;;;;;;;4947719;28;19977;-67
2021/03/23 15:24:17;;;;;;;;;;;;;;;;;;4946133;28;19927;-65
2021/03/23 15:26:44;;;;;;;;;;;;;;;;;;4954030;28;20630;-66
2021/03/23 15:29:10;;;;;;;;;;;;;;;;;;4942101;29;19937;-67
2021/03/23 15:31:37;;;;;;;;;;;;;;;;;;4944038;28;20009;-67
2021/03/23 15:34:03;;;;;;;;;;;;;;;;;;4948798;28;19927;-66
2021/03/23 15:36:30;;;;;;;;;;;;;;;;;;4955636;28;19934;-65
2021/03/23 15:38:56;;;;;;;;;;;;;;;;;;4948515;28;20430;-65
2021/03/23 15:41:23;;;;;;;;;;;;;;;;;;4947476;28;20005;-65
2021/03/23 15:43:49;;;;;;;;;;;;;;;;;;4951521;28;19930;-66
2021/03/23 15:46:16;;;;;;;;;;;;;;;;;;4949728;28;19926;-66
2021/03/23 15:48:42;;;;;;;;;;;;;;;;;;4951617;28;19965;-66
2021/03/23 15:51:09;;;;;;;;;;;;;;;;;;4951661;28;19927;-66
2021/03/23 15:53:35;;;;;;;;;;;;;;;;;;4949917;28;20058;-66
2021/03/23 15:56:02;;;;;;;;;;;;;;;;;;4945020;28;19927;-66
2021/03/23 15:58:29;;;;;;;;;;;;;;;;;;4948105;28;19965;-67
2021/03/23 16:00:56;;;;;;;;;;;;;;;;;;4948660;28;19970;-67
2021/03/23 16:03:23;;;;;;;;;;;;;;;;;;4947101;28;19970;-66
2021/03/23 16:05:51;;;;;;;;;;;;;;;;;;4950781;28;19926;-67
2021/03/23 16:08:18;;;;;;;;;;;;;;;;;;4947853;28;20190;-68
2021/03/23 16:10:44;;;;;;;;;;;;;;;;;;4949419;28;20427;-65
2021/03/23 16:13:11;;;;;;;;;;;;;;;;;;4947898;28;19933;-67
2021/03/23 16:15:37;;;;;;;;;;;;;;;;;;4949992;28;19953;-65
2021/03/23 16:18:04;;;;;;;;;;;;;;;;;;4947154;28;19926;-67
2021/03/23 16:20:30;;;;;;;;;;;;;;;;;;4951752;28;20021;-65
2021/03/23 16:22:57;;;;;;;;;;;;;;;;;;4946833;28;20307;-66
2021/03/23 16:25:24;;;;;;;;;;;;;;;;;;4950646;28;19926;-68
2021/03/23 16:27:50;;;;;;;;;;;;;;;;;;4949132;28;19985;-66
2021/03/23 16:30:17;;;;;;;;;;;;;;;;;;4949655;28;19926;-66
2021/03/23 16:32:43;;;;;;;;;;;;;;;;;;4948317;28;19973;-66
2021/03/23 16:35:10;;;;;;;;;;;;;;;;;;4948579;28;20299;-65
2021/03/23 16:37:36;;;;;;;;;;;;;;;;;;4948741;28;20458;-66
2021/03/23 16:40:03;;;;;;;;;;;;;;;;;;4945913;28;19926;-67
2021/03/23 16:42:29;;;;;;;;;;;;;;;;;;4946927;28;19998;-67